Time;durP1;ratioP1;P1;durP2;ratioP2;P2;SDS_P1;SDS_P2;PMS_P1;PMS_P2;Temp;Humidity;BMP_temperature;BMP_pressure;BME280_temperature;BME280_humidity;BME280_pressure;Samples;Min_cycle;Max_cycle;Signal;HPM_P1;HPM_P2
2021/12/16 00:33:10;;;;;;;4.68;4.38;;;;;;;11.95;71.44;102313.44;6054659;23;20004;-76
2021/12/16 00:35:42;;;;;;;3.88;3.58;;;;;;;11.77;71.41;102288.75;6107115;23;20035;-78
2021/12/16 00:38:19;;;;;;;;;;;;;;;;;;;;;
2021/12/16 00:40:53;;;;;;;3.30;3.13;;;;;;;11.89;71.82;102308.84;6225423;23;20047;-77
2021/12/16 00:46:27;;;;;;;2.85;2.70;;;;;;;11.94;71.75;102322.72;6201485;23;20007;-77
2021/12/16 00:49:16;;;;;;;2.65;2.55;;;;;;;11.86;72.14;102321.09;6198474;23;20463;-77
2021/12/16 00:54:27;;;;;;;2.60;2.50;;;;;;;11.86;71.22;102314.81;6219354;23;20014;-78
2021/12/16 00:57:00;;;;;;;3.20;3.00;;;;;;;11.92;71.58;102324.84;6221836;23;20075;-77
2021/12/16 00:59:31;;;;;;;2.65;2.55;;;;;;;11.95;71.30;102331.81;6223358;23;20486;-77
2021/12/16 01:54:36;;;;;;;2.58;2.47;;;;;;;11.68;71.63;102327.44;6231443;23;20352;-76
2021/12/16 01:57:15;;;;;;;2.83;2.70;;;;;;;11.72;71.46;102343.41;6223435;23;20059;-76
2021/12/16 01:59:45;;;;;;;3.15;2.95;;;;;;;11.68;72.14;102341.13;6195694;23;20012;-77
2021/12/16 02:05:22;;;;;;;3.33;3.08;;;;;;;11.69;71.51;102348.28;6224062;23;20083;-76
2021/12/16 02:37:31;;;;;;;3.38;3.17;;;;;;;11.62;71.53;102347.53;6074548;23;20030;-76
2021/12/16 02:53:50;;;;;;;2.40;2.30;;;;;;;11.60;71.94;102348.81;6184975;23;20145;-75
2021/12/16 02:56:17;;;;;;;2.33;2.08;;;;;;;11.72;71.98;102370.81;6184197;23;20036;-73
2021/12/16 02:58:46;;;;;;;1.00;1.00;;;;;;;11.80;71.14;102378.75;6181004;23;20013;-73
2021/12/16 03:01:28;;;;;;;0.98;0.98;;;;;;;11.84;71.10;102377.22;6181947;23;20424;-74
2021/12/16 03:03:54;;;;;;;2.33;2.17;;;;;;;11.83;71.25;102378.31;6206426;23;20008;-71
2021/12/16 03:06:20;;;;;;;2.28;2.17;;;;;;;11.83;71.44;102372.81;6188993;23;20011;-72
2021/12/16 03:08:46;;;;;;;1.75;1.65;;;;;;;11.83;71.17;102381.88;6189840;23;20013;-73
2021/12/16 03:11:24;;;;;;;3.80;2.72;;;;;;;11.82;71.11;102376.63;6184472;23;20048;-71
2021/12/16 03:19:25;;;;;;;3.70;3.40;;;;;;;11.82;71.32;102365.66;6158316;23;20048;-73
2021/12/16 03:21:55;;;;;;;3.78;3.47;;;;;;;11.83;70.68;102372.81;6161379;23;20009;-76
2021/12/16 03:24:46;;;;;;;3.58;3.28;;;;;;;11.84;70.51;102366.25;6191169;23;20009;-77
2021/12/16 03:30:13;;;;;;;2.80;2.70;;;;;;;11.84;70.63;102358.03;6191899;23;20033;-81
2021/12/16 03:35:51;;;;;;;2.10;2.00;;;;;;;11.85;70.80;102367.94;6203293;23;20059;-76
2021/12/16 03:38:17;;;;;;;2.28;2.17;;;;;;;11.83;70.81;102359.13;6193478;23;20001;-76
2021/12/16 03:40:43;;;;;;;2.30;2.20;;;;;;;11.79;70.61;102346.94;6191630;23;20005;-77
2021/12/16 03:43:16;;;;;;;2.92;2.72;;;;;;;11.83;70.45;102354.47;6193840;23;20011;-77
2021/12/16 03:48:44;;;;;;;2.50;2.33;;;;;;;11.78;70.63;102361.69;6201138;23;20040;-75
2021/12/16 03:51:18;;;;;;;4.07;3.85;;;;;;;11.74;70.76;102355.84;6193422;23;20004;-76
2021/12/16 03:53:46;;;;;;;3.90;3.70;;;;;;;11.72;70.58;102357.13;6168129;23;20008;-77
2021/12/16 03:56:12;;;;;;;4.15;3.85;;;;;;;11.68;70.56;102363.06;6165554;23;20064;-76
2021/12/16 03:58:39;;;;;;;3.40;3.30;;;;;;;11.64;70.82;102361.81;6194755;23;20004;-77
2021/12/16 04:01:10;;;;;;;3.17;2.95;;;;;;;11.64;70.62;102364.56;6165143;23;20032;-78
2021/12/16 04:03:38;;;;;;;2.53;2.30;;;;;;;11.65;70.46;102368.13;6194983;23;20001;-77
2021/12/16 04:06:04;;;;;;;4.78;2.63;;;;;;;11.64;70.71;102378.28;6194496;23;20028;-78
2021/12/16 04:08:30;;;;;;;2.83;2.72;;;;;;;11.63;70.94;102364.78;6215458;23;20020;-75
2021/12/16 04:11:06;;;;;;;2.30;2.20;;;;;;;11.64;70.59;102370.06;6224570;23;20008;-78
2021/12/16 04:13:52;;;;;;;2.63;2.42;;;;;;;11.56;71.15;102359.38;6199089;23;20008;-78
2021/12/16 04:16:17;;;;;;;2.38;2.08;;;;;;;11.62;70.90;102380.41;6197874;23;20028;-78
2021/12/16 04:18:45;;;;;;;3.65;2.83;;;;;;;11.60;70.55;102374.31;6199101;23;20060;-78
2021/12/16 04:21:11;;;;;;;2.88;2.67;;;;;;;11.63;70.50;102382.06;6199035;23;20040;-76
2021/12/16 04:23:36;;;;;;;2.30;2.15;;;;;;;11.64;70.51;102377.44;6197816;23;20008;-78
2021/12/16 04:26:02;;;;;;;2.78;2.60;;;;;;;11.61;71.27;102373.25;6174545;23;20024;-76
2021/12/16 04:28:30;;;;;;;2.65;2.55;;;;;;;11.63;70.78;102376.59;6194606;23;20019;-77
2021/12/16 04:30:56;;;;;;;1.77;1.67;;;;;;;11.64;70.91;102378.28;6224039;23;20008;-76
2021/12/16 04:33:25;;;;;;;1.65;1.58;;;;;;;11.68;70.70;102387.72;6225285;23;20007;-78
2021/12/16 04:35:51;;;;;;;1.33;1.33;;;;;;;11.68;70.62;102384.97;6196699;23;19997;-77
2021/12/16 04:38:17;;;;;;;1.30;1.20;;;;;;;11.66;70.77;102381.59;6220942;23;20012;-76
2021/12/16 04:40:45;;;;;;;1.33;1.25;;;;;;;11.68;71.20;102390.47;6214826;23;20000;-79
2021/12/16 04:43:19;;;;;;;2.20;2.00;;;;;;;11.67;70.44;102380.56;6213733;23;20027;-79
2021/12/16 04:45:45;;;;;;;2.97;2.80;;;;;;;11.69;70.53;102392.13;6223399;23;20005;-77
2021/12/16 04:48:11;;;;;;;2.50;2.30;;;;;;;11.70;69.98;102385.59;6224672;23;20005;-79
2021/12/16 04:50:37;;;;;;;1.88;1.77;;;;;;;11.69;70.57;102383.91;6223727;23;20023;-79
2021/12/16 04:53:02;;;;;;;1.52;1.42;;;;;;;11.74;70.38;102387.88;6196513;23;20569;-79
2021/12/16 04:55:28;;;;;;;1.40;1.38;;;;;;;11.74;70.08;102390.59;6195223;23;20020;-78
2021/12/16 04:57:55;;;;;;;1.50;1.40;;;;;;;11.77;69.99;102392.91;6192399;23;20012;-75
2021/12/16 05:00:23;;;;;;;1.27;1.27;;;;;;;11.76;70.07;102391.25;6216069;23;20462;-76
2021/12/16 05:02:49;;;;;;;1.02;1.02;;;;;;;11.78;69.97;102386.34;6198039;23;20431;-77
2021/12/16 05:05:16;;;;;;;0.82;0.82;;;;;;;11.81;70.35;102396.88;6198097;23;20023;-77
2021/12/16 05:07:43;;;;;;;0.90;0.90;;;;;;;11.81;70.34;102392.25;6193679;22;20021;-77
2021/12/16 05:10:13;;;;;;;0.55;0.55;;;;;;;11.81;70.02;102397.72;6190520;23;20005;-77
2021/12/16 05:12:47;;;;;;;0.80;0.80;;;;;;;11.82;70.08;102401.28;6194973;23;20416;-76
2021/12/16 05:15:28;;;;;;;0.80;0.80;;;;;;;11.83;69.89;102392.84;6194996;23;20028;-79
2021/12/16 05:17:55;;;;;;;0.60;0.60;;;;;;;11.84;69.42;102399.16;6214732;23;20005;-78
2021/12/16 05:20:35;;;;;;;1.23;1.23;;;;;;;11.87;69.61;102398.69;6197997;23;20008;-78
2021/12/16 05:26:16;;;;;;;1.27;1.17;;;;;;;11.86;69.43;102397.03;6224996;23;20043;-74
2021/12/16 05:28:46;;;;;;;1.33;1.23;;;;;;;11.86;69.58;102403.34;6222213;23;20331;-76
2021/12/16 05:31:13;;;;;;;1.48;1.38;;;;;;;11.86;69.29;102408.00;6222204;23;20074;-75
2021/12/16 05:33:39;;;;;;;1.00;1.00;;;;;;;11.86;69.39;102405.25;6197135;23;20132;-77
2021/12/16 05:36:05;;;;;;;1.17;1.10;;;;;;;11.85;69.57;102406.31;6196618;23;20017;-79
2021/12/16 05:38:31;;;;;;;0.90;0.90;;;;;;;11.84;69.42;102412.84;6224972;23;20087;-77
2021/12/16 05:41:00;;;;;;;0.80;0.80;;;;;;;11.85;69.12;102414.53;6170023;23;20005;-76
2021/12/16 05:43:28;;;;;;;0.77;0.77;;;;;;;11.87;69.25;102417.88;6222754;23;20070;-77
2021/12/16 05:45:55;;;;;;;0.80;0.80;;;;;;;11.85;69.16;102411.81;6224167;23;20035;-77
2021/12/16 05:48:24;;;;;;;1.02;1.02;;;;;;;11.85;68.61;102423.59;6199228;23;20076;-77
2021/12/16 05:50:54;;;;;;;2.10;1.50;;;;;;;11.84;69.15;102415.59;6223957;23;19996;-77
2021/12/16 05:53:21;;;;;;;0.93;0.93;;;;;;;11.83;68.60;102420.25;6199358;23;20474;-78
2021/12/16 05:55:47;;;;;;;0.70;0.70;;;;;;;11.80;68.82;102419.88;6196474;23;20011;-80
2021/12/16 05:58:18;;;;;;;0.63;0.60;;;;;;;11.84;69.04;102432.03;6172988;23;20012;-79
2021/12/16 06:00:44;;;;;;;0.40;0.40;;;;;;;11.83;69.00;102428.47;6221541;23;20012;-77
2021/12/16 06:03:11;;;;;;;0.50;0.50;;;;;;;11.83;68.85;102436.69;6196494;23;20079;-79
2021/12/16 06:05:44;;;;;;;0.38;0.38;;;;;;;11.86;68.56;102440.91;6196780;23;20056;-79
2021/12/16 06:08:10;;;;;;;0.35;0.35;;;;;;;11.84;68.89;102434.78;6225601;23;20051;-79
2021/12/16 06:13:24;;;;;;;1.20;0.70;;;;;;;11.76;68.63;102426.88;6201093;23;20343;-80
2021/12/16 06:29:37;;;;;;;0.47;0.47;;;;;;;11.84;68.12;102443.00;6225286;23;20015;-78
2021/12/16 06:32:04;;;;;;;0.45;0.45;;;;;;;11.85;67.66;102448.25;6193623;23;19993;-78
2021/12/16 06:34:29;;;;;;;0.40;0.40;;;;;;;11.87;66.81;102442.56;6222225;23;20416;-78
2021/12/16 06:36:55;;;;;;;0.30;0.30;;;;;;;11.93;67.15;102452.69;6169617;23;20016;-77
2021/12/16 06:39:21;;;;;;;0.70;0.60;;;;;;;11.91;66.89;102454.75;6219822;23;20004;-75
2021/12/16 06:41:46;;;;;;;0.35;0.35;;;;;;;11.91;66.55;102454.75;6195312;23;20045;-77
2021/12/16 06:44:22;;;;;;;0.60;0.60;;;;;;;11.89;66.47;102456.91;6220498;23;20015;-78
2021/12/16 06:46:49;;;;;;;0.57;0.57;;;;;;;11.88;66.97;102461.56;6195480;23;20000;-78
2021/12/16 06:49:17;;;;;;;0.40;0.40;;;;;;;11.90;66.76;102455.84;6222873;23;20079;-78
2021/12/16 06:51:50;;;;;;;0.50;0.45;;;;;;;11.89;66.35;102456.91;6194564;23;20304;-77
2021/12/16 06:54:25;;;;;;;0.30;0.30;;;;;;;11.89;66.51;102462.38;6222295;23;20017;-75
2021/12/16 06:59:32;;;;;;;0.30;0.25;;;;;;;11.92;66.97;102467.41;6202302;23;20431;-77
2021/12/16 07:02:06;;;;;;;0.32;0.30;;;;;;;11.93;66.54;102477.34;6220931;23;20028;-79
2021/12/16 07:04:46;;;;;;;;;;;;;;;;;;;;;
2021/12/16 07:07:14;;;;;;;1.52;0.82;;;;;;;11.84;66.65;102465.78;6206263;23;20000;-79
2021/12/16 07:09:53;;;;;;;;;;;;;;;;;;;;;
2021/12/16 07:12:35;;;;;;;;;;;;;;;;;;;;;
2021/12/16 07:15:13;;;;;;;0.60;0.60;;;;;;;11.72;63.64;102456.63;6225753;23;20043;-79
2021/12/16 07:17:49;;;;;;;0.90;0.90;;;;;;;11.75;63.86;102467.13;6198796;23;20071;-81
2021/12/16 07:20:22;;;;;;;0.60;0.60;;;;;;;11.89;63.82;102489.78;6226458;23;20090;-79
2021/12/16 07:22:48;;;;;;;0.45;0.45;;;;;;;11.91;63.56;102497.78;6200642;23;20062;-81
2021/12/16 07:25:23;;;;;;;0.50;0.50;;;;;;;11.97;63.34;102508.75;6193804;23;20001;-79
2021/12/16 07:27:48;;;;;;;0.68;0.68;;;;;;;11.84;62.71;102481.38;6195441;23;20000;-76
2021/12/16 07:30:19;;;;;;;0.30;0.30;;;;;;;11.84;62.80;102475.91;6222952;23;20047;-75
2021/12/16 07:32:46;;;;;;;0.32;0.32;;;;;;;12.02;62.98;102506.16;6197750;23;20005;-75
2021/12/16 07:35:25;;;;;;;0.30;0.30;;;;;;;12.03;63.01;102505.09;6224697;23;20024;-77
2021/12/16 07:37:55;;;;;;;0.35;0.35;;;;;;;12.04;63.36;102505.91;6173462;23;20009;-76
2021/12/16 07:40:23;;;;;;;0.40;0.40;;;;;;;11.94;63.51;102503.69;6172059;23;20035;-75
2021/12/16 07:45:46;;;;;;;;;;;;;;;12.09;63.08;102516.22;6128430;23;20009;-77
2021/12/16 07:48:18;;;;;;;0.22;0.22;;;;;;;12.04;63.77;102523.22;6189314;23;19904;-77
2021/12/16 07:50:47;;;;;;;0.10;0.10;;;;;;;12.04;63.64;102533.34;6196942;23;20375;-75
2021/12/16 07:53:15;;;;;;;0.10;0.10;;;;;;;12.04;63.51;102527.88;6196095;23;20012;-77
2021/12/16 07:55:42;;;;;;;0.10;0.10;;;;;;;11.96;64.04;102518.03;6196846;23;20008;-78
2021/12/16 07:58:09;;;;;;;0.17;0.13;;;;;;;12.02;63.97;102522.59;6197451;23;20005;-80
2021/12/16 08:00:38;;;;;;;0.20;0.20;;;;;;;12.00;63.85;102530.22;6172706;23;20021;-75
2021/12/16 08:03:15;;;;;;;0.20;0.20;;;;;;;11.99;63.95;102522.22;6198777;23;20000;-80
2021/12/16 08:06:10;;;;;;;0.13;0.13;;;;;;;12.09;64.54;102539.00;6225896;23;20038;-77
2021/12/16 08:08:58;;;;;;;0.30;0.30;;;;;;;12.13;63.90;102551.19;6220565;23;20340;-77
2021/12/16 08:11:37;;;;;;;;;;;;;;;;;;;;;
2021/12/16 08:14:11;;;;;;;0.10;0.10;;;;;;;11.97;64.09;102533.41;6222307;23;20415;-75
2021/12/16 08:16:45;;;;;;;0.10;0.10;;;;;;;12.03;63.96;102538.00;6217949;23;20445;-80
2021/12/16 08:22:48;;;;;;;0.13;0.13;;;;;;;12.14;64.19;102563.84;6202178;23;20027;-79
2021/12/16 08:25:18;;;;;;;0.25;0.10;;;;;;;11.94;64.43;102536.59;6199334;23;20091;-81
2021/12/16 08:27:44;;;;;;;0.20;0.20;;;;;;;12.15;64.19;102559.19;6222457;23;20084;-80
2021/12/16 08:30:23;;;;;;;0.25;0.20;;;;;;;12.05;64.37;102544.09;6194796;23;20064;-81
2021/12/16 08:32:57;;;;;;;0.10;0.10;;;;;;;12.07;64.17;102551.25;6197568;23;20050;-81
2021/12/16 08:36:04;;;;;;;;;;;;;;;;;;;;;
2021/12/16 08:38:45;;;;;;;0.10;0.08;;;;;;;12.03;63.90;102539.88;6224183;23;20442;-81
2021/12/16 08:41:35;;;;;;;0.40;0.40;;;;;;;12.21;64.35;102574.78;6219590;23;20004;-81
2021/12/16 08:47:24;;;;;;;0.50;0.40;;;;;;;12.20;63.39;102571.16;6207037;23;20005;-81
2021/12/16 08:52:36;;;;;;;0.20;0.20;;;;;;;12.15;63.55;102554.56;6200559;23;19997;-80
2021/12/16 08:55:21;;;;;;;;;;;;;;;;;;;;;
2021/12/16 08:57:56;;;;;;;0.20;0.20;;;;;;;12.24;63.06;102563.34;6188431;23;20012;-80
2021/12/16 09:04:12;;;;;;;0.10;0.10;;;;;;;12.37;63.54;102568.69;6058632;23;20042;-79
2021/12/16 09:06:42;;;;;;;0.10;0.10;;;;;;;12.50;62.83;102583.34;6162967;23;20032;-81
2021/12/16 09:09:09;;;;;;;1.75;0.35;;;;;;;12.35;62.54;102565.34;6161208;23;20025;-80
2021/12/16 09:11:43;;;;;;;0.30;0.30;;;;;;;12.33;62.48;102567.47;6137084;23;20006;-79
2021/12/16 09:14:40;;;;;;;0.45;0.40;;;;;;;12.40;62.27;102570.16;6138007;23;20006;-80
2021/12/16 09:17:29;;;;;;;0.20;0.20;;;;;;;12.60;63.04;102602.91;6138687;23;20009;-82
2021/12/16 09:20:13;;;;;;;0.20;0.20;;;;;;;12.57;62.17;102600.59;6138954;23;20005;-82
2021/12/16 09:22:39;;;;;;;0.20;0.20;;;;;;;12.64;62.61;102606.84;6163136;23;20092;-80
2021/12/16 09:25:10;;;;;;;0.22;0.20;;;;;;;12.57;62.33;102587.72;6194198;23;20008;-81
2021/12/16 09:28:07;;;;;;;0.20;0.20;;;;;;;12.58;63.06;102586.63;6204407;23;20005;-81
2021/12/16 09:30:44;;;;;;;0.35;0.35;;;;;;;12.61;63.05;102584.53;6227330;23;20019;-80
2021/12/16 09:33:28;;;;;;;;;;;;;;;;;;;;;
2021/12/16 09:36:00;;;;;;;0.82;0.82;;;;;;;12.73;61.71;102601.91;6219713;23;20032;-81
2021/12/16 09:38:46;;;;;;;0.73;0.60;;;;;;;12.73;61.91;102605.50;6213137;23;20008;-80
2021/12/16 09:41:14;;;;;;;0.30;0.30;;;;;;;12.70;62.20;102599.63;6189531;23;20008;-80
2021/12/16 09:44:12;;;;;;;;;;;;;;;;;;;;;
2021/12/16 09:47:11;;;;;;;0.30;0.30;;;;;;;12.89;61.33;102625.19;6215099;23;20380;-80
2021/12/16 09:50:07;;;;;;;;;;;;;;;;;;;;;
2021/12/16 09:52:33;;;;;;;0.35;0.28;;;;;;;12.86;61.50;102614.66;6213116;23;20081;-81
2021/12/16 09:58:28;;;;;;;1.08;0.20;;;;;;;12.88;62.34;102607.88;6178582;23;20039;-83
2021/12/16 10:01:14;;;;;;;;;;;;;;;;;;;;;
2021/12/16 10:04:01;;;;;;;0.70;0.68;;;;;;;13.06;61.79;102639.16;6215691;23;20080;-81
2021/12/16 10:09:59;;;;;;;0.55;0.32;;;;;;;13.04;61.52;102636.63;6178131;23;20454;-80
2021/12/16 10:18:21;;;;;;;0.20;0.20;;;;;;;13.24;61.28;102654.78;6184818;23;20005;-80
2021/12/16 10:20:55;;;;;;;0.20;0.10;;;;;;;13.34;61.12;102660.59;6183171;23;20009;-80
2021/12/16 10:23:58;;;;;;;0.20;0.20;;;;;;;13.41;61.01;102666.03;6185684;23;20010;-80
2021/12/16 10:27:12;;;;;;;;;;;;;;;;;;;;;
2021/12/16 10:30:12;;;;;;;;;;;;;;;;;;;;;
2021/12/16 10:32:50;;;;;;;0.30;0.30;;;;;;;13.40;60.79;102647.88;6185324;23;20072;-79
2021/12/16 10:35:47;;;;;;;;;;;;;;;;;;;;;
2021/12/16 10:38:26;;;;;;;;;;;;;;;;;;;;;
2021/12/16 10:40:58;;;;;;;0.25;0.22;;;;;;;13.66;60.43;102652.16;6182484;23;20088;-80
2021/12/16 10:43:32;;;;;;;0.10;0.10;;;;;;;13.79;60.65;102660.22;6154988;23;20001;-80
2021/12/16 10:46:22;;;;;;;;;;;;;;;;;;;;;
2021/12/16 10:49:13;;;;;;;0.52;0.52;;;;;;;13.85;59.97;102666.72;6182094;23;20079;-80
2021/12/16 10:51:57;;;;;;;;;;;;;;;;;;;;;
2021/12/16 10:54:39;;;;;;;;;;;;;;;;;;;;;
2021/12/16 10:57:38;;;;;;;0.28;0.28;;;;;;;13.87;59.64;102636.22;6160600;23;20392;-78
2021/12/16 11:00:07;;;;;;;0.30;0.30;;;;;;;14.04;59.08;102656.50;6095797;23;20062;-76
2021/12/16 11:03:03;;;;;;;0.20;0.20;;;;;;;14.10;59.52;102657.47;6180323;23;20060;-76
2021/12/16 11:05:28;;;;;;;0.10;0.10;;;;;;;14.04;59.49;102637.22;6132966;23;20013;-76
2021/12/16 11:07:58;;;;;;;0.20;0.10;;;;;;;14.23;59.51;102656.41;6180299;23;20086;-77
2021/12/16 11:10:40;;;;;;;0.25;0.20;;;;;;;14.27;59.32;102652.13;6182934;23;20382;-80
2021/12/16 11:13:19;;;;;;;0.55;0.40;;;;;;;14.22;58.20;102639.09;6186397;23;20088;-81
2021/12/16 11:19:06;;;;;;;0.40;0.40;;;;;;;14.16;57.52;102633.66;6124296;23;20136;-81
2021/12/16 11:22:04;;;;;;;0.60;0.60;;;;;;;14.19;57.14;102645.03;6181887;23;20008;-82
2021/12/16 11:24:53;;;;;;;0.50;0.50;;;;;;;14.04;56.99;102631.72;6159429;23;20014;-77
2021/12/16 11:27:49;;;;;;;;;;;;;;;;;;;;;
2021/12/16 11:30:46;;;;;;;0.17;0.17;;;;;;;14.42;57.57;102669.00;6213918;23;20394;-83
2021/12/16 11:34:26;;;;;;;0.20;0.20;;;;;;;14.51;57.75;102652.16;6189356;23;19996;-81
2021/12/16 11:41:11;;;;;;;0.32;0.20;;;;;;;14.45;57.50;102626.41;6193025;23;20017;-81
2021/12/16 11:44:33;;;;;;;;;;;;;;;;;;;;;
2021/12/16 11:47:20;;;;;;;0.10;0.10;;;;;;;14.56;57.62;102638.50;6064309;23;20086;-81
2021/12/16 11:57:06;;;;;;;0.20;0.20;;;;;;;14.51;56.88;102665.91;6065022;23;20015;-81
2021/12/16 12:00:01;;;;;;;;;;;;;;;;;;;;;
2021/12/16 12:03:07;;;;;;;;;;;;;;;;;;;;;
2021/12/16 12:06:44;;;;;;;;;;;;;;;;;;;;;
2021/12/16 12:10:23;;;;;;;0.20;0.20;;;;;;;14.38;56.33;102640.28;6034885;23;20336;-75
2021/12/16 12:13:11;;;;;;;;;;;;;;;;;;;;;
2021/12/16 12:19:39;;;;;;;;;;;;;;;14.31;55.56;102669.84;6074907;23;20498;-76
2021/12/16 12:25:37;;;;;;;0.40;0.40;;;;;;;14.05;55.50;102652.66;6079038;23;20010;-75
2021/12/16 12:28:10;;;;;;;0.40;0.38;;;;;;;14.08;55.62;102660.44;6126971;23;20017;-74
2021/12/16 12:30:47;;;;;;;;;;;;;;;;;;;;;
2021/12/16 12:33:13;;;;;;;0.40;0.40;;;;;;;14.10;55.38;102650.03;6215925;23;20079;-75
2021/12/16 12:35:41;;;;;;;0.32;0.30;;;;;;;14.17;55.62;102657.38;6182346;23;20032;-75
2021/12/16 12:38:10;;;;;;;0.28;0.28;;;;;;;14.20;55.74;102662.41;6216306;23;20004;-76
2021/12/16 12:40:49;;;;;;;;;;;;;;;;;;;;;
2021/12/16 12:43:25;;;;;;;;;;;;;;;;;;;;;
2021/12/16 12:45:51;;;;;;;0.30;0.30;;;;;;;14.13;55.35;102657.84;6208240;23;20079;-75
2021/12/16 12:48:40;;;;;;;0.30;0.30;;;;;;;14.23;55.36;102671.00;6206587;23;20024;-74
2021/12/16 12:55:05;;;;;;;0.55;0.40;;;;;;;14.06;55.42;102662.59;6155454;23;20368;-75
2021/12/16 12:58:03;;;;;;;0.55;0.55;;;;;;;13.91;55.42;102642.94;6185354;23;20107;-75
2021/12/16 13:01:00;;;;;;;0.63;0.63;;;;;;;13.94;55.20;102661.72;6182574;23;20435;-75
2021/12/16 13:04:02;;;;;;;0.40;0.32;;;;;;;13.91;55.34;102660.28;6210463;23;20071;-76
2021/12/16 13:06:48;;;;;;;0.73;0.35;;;;;;;13.90;55.44;102649.50;6165251;23;20008;-76
2021/12/16 13:13:13;;;;;;;0.77;0.77;;;;;;;13.97;55.13;102669.50;6178294;23;19904;-78
2021/12/16 13:26:22;;;;;;;1.42;0.60;;;;;;;13.95;55.63;102666.16;6217739;23;20272;-79
2021/12/16 13:32:25;;;;;;;;;;;;;;;;;;;;;
2021/12/16 13:35:35;;;;;;;0.68;0.50;;;;;;;13.79;55.29;102656.66;6215781;23;20084;-79
2021/12/16 13:38:16;;;;;;;0.90;0.90;;;;;;;13.63;54.93;102651.81;6188336;23;20331;-79
2021/12/16 13:43:48;;;;;;;;;;;;;;;;;;;;;
2021/12/16 13:49:14;;;;;;;0.20;0.20;;;;;;;13.65;55.79;102638.66;6199769;23;20019;-79
2021/12/16 14:10:33;;;;;;;0.10;0.10;;;;;;;13.78;55.52;102650.31;6048382;23;20023;-80
2021/12/16 14:42:43;;;;;;;0.20;0.20;;;;;;;13.24;56.38;102635.56;5980601;24;20125;-79
2021/12/16 14:45:42;;;;;;;0.20;0.20;;;;;;;13.31;56.13;102646.47;6035830;23;20093;-78
2021/12/16 14:48:59;;;;;;;;;;;;;;;;;;;;;
2021/12/16 14:51:57;;;;;;;0.20;0.20;;;;;;;13.25;56.84;102634.50;6103989;23;20030;-78
2021/12/16 14:55:10;;;;;;;0.10;0.10;;;;;;;13.22;56.81;102635.78;6067957;23;20010;-80
2021/12/16 15:02:13;;;;;;;;;;;;;;;;;;;;;
2021/12/16 15:05:38;;;;;;;;;;;;;;;;;;;;;
2021/12/16 15:08:50;;;;;;;0.25;0.25;;;;;;;12.96;56.55;102642.44;6128987;23;20105;-79
2021/12/16 15:16:05;;;;;;;0.38;0.20;;;;;;;12.96;57.10;102663.56;6144702;23;20019;-78
2021/12/16 15:42:46;;;;;;;0.70;0.65;;;;;;;12.48;56.72;102645.84;5956416;24;20031;-80
2021/12/16 15:44:10;;;;;;;1.35;0.70;;;;;;;12.51;57.20;102656.38;5978527;24;20420;-80
2021/12/16 15:50:34;;;;;;;0.40;0.40;;;;;;;12.49;57.35;102661.28;5953871;24;20009;-79
2021/12/16 15:53:31;;;;;;;;;;;;;;;;;;;;;
2021/12/16 15:56:09;;;;;;;0.40;0.40;;;;;;;12.53;57.76;102676.22;6115183;23;20455;-79
2021/12/16 15:58:43;;;;;;;0.60;0.60;;;;;;;12.44;57.37;102672.91;6113829;23;20081;-79
2021/12/16 16:01:32;;;;;;;0.70;0.70;;;;;;;12.39;57.36;102673.56;6204792;23;20013;-81
2021/12/16 16:04:29;;;;;;;0.60;0.60;;;;;;;12.44;57.19;102677.53;6178375;23;20032;-81
2021/12/16 16:08:12;;;;;;;;;;;;;;;;;;;;;
2021/12/16 16:11:13;;;;;;;0.40;0.40;;;;;;;12.38;57.65;102685.63;6113940;23;20016;-80
2021/12/16 16:14:34;;;;;;;;;;;;;;;;;;;;;
2021/12/16 16:17:02;;;;;;;0.20;0.20;;;;;;;12.27;57.55;102667.13;6204170;23;19999;-80
2021/12/16 16:20:33;;;;;;;;;;;;;;;;;;;;;
2021/12/16 16:23:20;;;;;;;0.93;0.30;;;;;;;12.34;58.16;102689.03;6199926;23;20008;-80
2021/12/16 16:29:49;;;;;;;1.20;1.20;;;;;;;12.08;57.84;102668.13;6187202;23;20375;-80
2021/12/16 16:33:09;;;;;;;;;;;;;;;;;;;;;
2021/12/16 16:36:49;;;;;;;;;;;;;;;;;;;;;
2021/12/16 16:40:09;;;;;;;;;;;;;;;;;;;;;
2021/12/16 16:42:53;;;;;;;3.95;1.60;;;;;;;12.15;58.21;102697.19;6072557;23;20010;-80
2021/12/16 16:49:23;;;;;;;2.20;2.00;;;;;;;12.13;58.29;102692.97;6062802;23;20093;-80
2021/12/16 17:05:47;;;;;;;0.75;0.75;;;;;;;12.04;58.60;102695.97;6060831;23;20011;-80
2021/12/16 17:08:42;;;;;;;2.35;0.70;;;;;;;12.08;58.30;102695.56;6054988;23;20426;-80
2021/12/16 17:11:55;;;;;;;0.95;0.95;;;;;;;11.91;59.01;102682.31;6128637;23;20082;-79
2021/12/16 17:21:51;;;;;;;;;;;;;;;;;;;;;
2021/12/16 17:24:45;;;;;;;;;;;;;;;;;;;;;
2021/12/16 17:27:53;;;;;;;;;;;;;;;;;;;;;
2021/12/16 17:30:46;;;;;;;1.17;1.10;;;;;;;11.80;58.74;102694.00;6232160;23;20009;-78
2021/12/16 17:33:23;;;;;;;1.38;1.10;;;;;;;11.72;58.73;102692.31;6227320;23;20020;-80
2021/12/16 17:35:53;;;;;;;0.82;0.63;;;;;;;11.78;58.59;102685.97;6221452;23;20007;-78
2021/12/16 17:38:27;;;;;;;0.90;0.90;;;;;;;11.78;58.59;102687.88;6185687;23;20020;-75
2021/12/16 17:41:05;;;;;;;0.17;0.17;;;;;;;11.87;59.31;102700.25;6186472;23;20005;-75
2021/12/16 17:43:43;;;;;;;0.47;0.47;;;;;;;11.91;58.84;102706.97;6188167;23;20004;-78
2021/12/16 17:46:12;;;;;;;0.20;0.20;;;;;;;11.86;59.23;102704.06;6184041;23;20007;-79
2021/12/16 17:49:34;;;;;;;0.57;0.55;;;;;;;11.96;59.28;102707.22;6195904;23;20007;-79
2021/12/16 17:52:30;;;;;;;0.45;0.45;;;;;;;11.92;59.51;102700.44;6184251;23;20016;-79
2021/12/16 17:55:26;;;;;;;0.70;0.70;;;;;;;11.83;59.08;102704.53;6187527;23;20374;-80
2021/12/16 17:58:09;;;;;;;0.50;0.50;;;;;;;11.93;59.02;102715.88;6168991;23;20008;-80
2021/12/16 18:01:06;;;;;;;1.23;0.77;;;;;;;11.80;58.96;102705.78;6190374;23;20048;-80
2021/12/16 18:03:56;;;;;;;1.00;1.00;;;;;;;11.68;59.08;102675.50;6214503;23;20095;-80
2021/12/16 18:06:54;;;;;;;0.88;0.88;;;;;;;11.72;59.25;102688.75;6216224;23;20363;-80
2021/12/16 18:09:47;;;;;;;0.70;0.68;;;;;;;11.85;58.56;102710.59;6201969;23;20031;-80
2021/12/16 18:12:43;;;;;;;0.40;0.40;;;;;;;11.78;59.55;102707.06;6167548;23;20392;-79
2021/12/16 18:18:52;;;;;;;0.52;0.52;;;;;;;11.74;59.05;102705.81;6196623;23;20304;-80
2021/12/16 18:21:17;;;;;;;0.60;0.60;;;;;;;11.60;59.41;102694.91;6216415;23;20008;-81
2021/12/16 18:24:02;;;;;;;1.05;1.05;;;;;;;11.78;59.04;102718.03;6185717;23;20009;-75
2021/12/16 18:27:27;;;;;;;;;;;;;;;;;;;;;
2021/12/16 18:30:57;;;;;;;;;;;;;;;;;;;;;
2021/12/16 18:34:10;;;;;;;;;;;;;;;;;;;;;
2021/12/16 18:36:59;;;;;;;;;;;;;;;;;;;;;
2021/12/16 18:47:20;;;;;;;;;;;;;;;;;;;;;
2021/12/16 18:50:03;;;;;;;0.80;0.80;;;;;;;11.60;59.30;102716.84;5993788;23;20044;-77
2021/12/16 18:55:43;;;;;;;1.60;1.50;;;;;;;11.60;59.63;102725.06;6039508;23;20406;-80
2021/12/16 18:58:26;;;;;;;;;;;;;;;11.73;59.68;102748.00;6040337;23;20183;-79
2021/12/16 19:12:07;;;;;;;2.50;2.30;;;;;;;11.57;60.01;102761.13;6006651;23;20085;-77
2021/12/16 19:18:16;;;;;;;;;;;;;;;11.54;59.88;102753.34;6001570;23;20011;-77
2021/12/16 19:20:42;;;;;;;3.45;3.03;;;;;;;11.36;59.24;102737.59;5997680;23;19941;-76
2021/12/16 19:23:15;;;;;;;2.75;2.38;;;;;;;11.48;59.44;102751.47;6067396;23;20013;-77
2021/12/16 19:25:59;;;;;;;3.15;2.95;;;;;;;11.41;59.86;102745.16;6122440;23;20013;-77
2021/12/16 19:28:32;;;;;;;1.85;1.75;;;;;;;11.44;59.67;102766.63;6094694;23;20009;-78
2021/12/16 19:31:32;;;;;;;;;;;;;;;;;;;;;
2021/12/16 19:34:22;;;;;;;1.70;1.60;;;;;;;11.24;59.20;102734.63;6184561;23;20076;-78
2021/12/16 19:36:48;;;;;;;2.83;1.13;;;;;;;11.28;59.92;102741.38;6155369;23;20012;-78
2021/12/16 19:40:11;;;;;;;0.80;0.73;;;;;;;11.29;59.21;102742.22;6158225;23;20001;-76
2021/12/16 19:43:13;;;;;;;;;;;;;;;;;;;;;
2021/12/16 19:45:56;;;;;;;2.10;2.00;;;;;;;11.41;59.29;102764.34;6186814;23;20088;-77
2021/12/16 19:48:36;;;;;;;;;;;;;;;;;;;;;
2021/12/16 19:51:28;;;;;;;;;;;;;;;;;;;;;
2021/12/16 19:54:33;;;;;;;;;;;;;;;;;;;;;
2021/12/16 19:56:59;;;;;;;1.58;1.27;;;;;;;11.25;59.67;102744.53;6187556;23;20437;-78
2021/12/16 20:03:27;;;;;;;;;;;;;;;;;;;;;
2021/12/16 20:06:05;;;;;;;0.55;0.55;;;;;;;11.22;59.84;102736.75;6185840;23;20098;-78
2021/12/16 20:08:56;;;;;;;0.60;0.60;;;;;;;11.36;59.77;102745.81;6187166;23;20104;-80
2021/12/16 20:14:34;;;;;;;0.40;0.40;;;;;;;11.37;59.52;102746.63;6186539;23;20043;-77
2021/12/16 20:23:25;;;;;;;;;;;;;;;;;;;;;
2021/12/16 20:25:55;;;;;;;1.58;1.55;;;;;;;11.34;60.09;102762.44;6188546;23;20388;-78
2021/12/16 20:28:47;;;;;;;4.03;1.25;;;;;;;11.29;60.21;102754.03;6157175;23;20309;-77